sensor_id;sensor_type;location;lat;lon;timestamp;pressure;altitude;pressure_sealevel;temperature;humidity
33506;BME280;19843;51.040;13.782;2023-07-16T00:01:16;99628.38;;;23.43;68.45
33506;BME280;19843;51.040;13.782;2023-07-16T00:03:45;99624.81;;;23.39;68.52
33506;BME280;19843;51.040;13.782;2023-07-16T00:06:12;99637.69;;;23.76;67.43
33506;BME280;19843;51.040;13.782;2023-07-16T00:08:40;99651.38;;;23.81;67.67
33506;BME280;19843;51.040;13.782;2023-07-16T00:11:08;99670.22;;;23.91;67.45
33506;BME280;19843;51.040;13.782;2023-07-16T00:13:35;99672.91;;;23.98;66.82
33506;BME280;19843;51.040;13.782;2023-07-16T00:16:04;99681.28;;;23.89;67.03
33506;BME280;19843;51.040;13.782;2023-07-16T00:18:31;99695.00;;;23.94;67.28
33506;BME280;19843;51.040;13.782;2023-07-16T00:21:00;99719.47;;;22.94;71.16
33506;BME280;19843;51.040;13.782;2023-07-16T00:23:28;99768.41;;;23.05;70.70
33506;BME280;19843;51.040;13.782;2023-07-16T00:25:55;99841.97;;;23.07;70.84
33506;BME280;19843;51.040;13.782;2023-07-16T00:28:23;99840.31;;;23.62;67.90
33506;BME280;19843;51.040;13.782;2023-07-16T00:30:50;99833.81;;;23.61;66.81
33506;BME280;19843;51.040;13.782;2023-07-16T00:33:18;99824.84;;;23.95;65.37
33506;BME280;19843;51.040;13.782;2023-07-16T00:35:47;99880.06;;;23.85;65.79
33506;BME280;19843;51.040;13.782;2023-07-16T00:38:16;99890.25;;;24.02;64.82
33506;BME280;19843;51.040;13.782;2023-07-16T00:40:44;99902.41;;;23.87;65.63
33506;BME280;19843;51.040;13.782;2023-07-16T00:43:11;99893.78;;;23.90;65.60
33506;BME280;19843;51.040;13.782;2023-07-16T00:45:40;99905.84;;;23.98;65.08
33506;BME280;19843;51.040;13.782;2023-07-16T00:48:08;99911.16;;;23.96;65.70
33506;BME280;19843;51.040;13.782;2023-07-16T00:50:36;99917.47;;;23.87;65.92
33506;BME280;19843;51.040;13.782;2023-07-16T00:53:05;99934.50;;;23.91;66.27
33506;BME280;19843;51.040;13.782;2023-07-16T00:55:36;99928.16;;;23.83;66.78
33506;BME280;19843;51.040;13.782;2023-07-16T00:58:04;99921.16;;;24.04;66.68
33506;BME280;19843;51.040;13.782;2023-07-16T01:00:32;99941.06;;;23.88;67.69
33506;BME280;19843;51.040;13.782;2023-07-16T01:03:00;99937.41;;;23.87;67.68
33506;BME280;19843;51.040;13.782;2023-07-16T01:05:36;99937.41;;;23.87;67.90
33506;BME280;19843;51.040;13.782;2023-07-16T01:08:09;99949.16;;;23.73;68.67
33506;BME280;19843;51.040;13.782;2023-07-16T01:10:39;99945.16;;;23.87;68.10
33506;BME280;19843;51.040;13.782;2023-07-16T01:13:08;99929.59;;;23.75;68.93
33506;BME280;19843;51.040;13.782;2023-07-16T01:15:35;99923.88;;;23.91;68.27
33506;BME280;19843;51.040;13.782;2023-07-16T01:18:04;99917.47;;;23.71;69.40
33506;BME280;19843;51.040;13.782;2023-07-16T01:20:32;99913.91;;;23.83;69.17
33506;BME280;19843;51.040;13.782;2023-07-16T01:23:26;99906.72;;;23.95;68.50
33506;BME280;19843;51.040;13.782;2023-07-16T01:26:21;99881.25;;;24.04;68.03
33506;BME280;19843;51.040;13.782;2023-07-16T01:29:12;99893.00;;;23.90;68.74
33506;BME280;19843;51.040;13.782;2023-07-16T01:31:46;99881.59;;;23.90;68.95
33506;BME280;19843;51.040;13.782;2023-07-16T01:34:14;99878.44;;;23.68;69.36
33506;BME280;19843;51.040;13.782;2023-07-16T01:36:42;99862.59;;;23.83;69.14
33506;BME280;19843;51.040;13.782;2023-07-16T01:41:38;99844.72;;;23.66;69.64
33506;BME280;19843;51.040;13.782;2023-07-16T01:44:05;99848.47;;;23.80;69.25
33506;BME280;19843;51.040;13.782;2023-07-16T01:46:34;99852.28;;;24.06;68.21
33506;BME280;19843;51.040;13.782;2023-07-16T01:49:02;99865.72;;;23.72;69.41
33506;BME280;19843;51.040;13.782;2023-07-16T01:51:29;99866.97;;;23.71;69.19
33506;BME280;19843;51.040;13.782;2023-07-16T01:53:57;99894.13;;;23.92;68.76
33506;BME280;19843;51.040;13.782;2023-07-16T01:56:24;99888.38;;;23.60;69.98
33506;BME280;19843;51.040;13.782;2023-07-16T01:58:52;99875.69;;;23.97;68.69
33506;BME280;19843;51.040;13.782;2023-07-16T02:01:19;99862.25;;;23.65;69.92
33506;BME280;19843;51.040;13.782;2023-07-16T02:03:48;99849.72;;;23.59;70.27
33506;BME280;19843;51.040;13.782;2023-07-16T02:06:16;99870.59;;;23.36;71.45
33506;BME280;19843;51.040;13.782;2023-07-16T02:08:44;99875.03;;;23.00;73.54
33506;BME280;19843;51.040;13.782;2023-07-16T02:11:11;99883.66;;;23.17;74.99
33506;BME280;19843;51.040;13.782;2023-07-16T02:13:39;99883.00;;;22.89;75.83
33506;BME280;19843;51.040;13.782;2023-07-16T02:16:06;99898.44;;;22.88;79.00
33506;BME280;19843;51.040;13.782;2023-07-16T02:18:34;99905.38;;;23.07;78.55
33506;BME280;19843;51.040;13.782;2023-07-16T02:21:03;99937.13;;;22.62;83.09
33506;BME280;19843;51.040;13.782;2023-07-16T02:23:30;99950.81;;;22.47;84.72
33506;BME280;19843;51.040;13.782;2023-07-16T02:25:58;99949.38;;;22.36;85.09
33506;BME280;19843;51.040;13.782;2023-07-16T02:28:25;99947.41;;;22.06;88.26
33506;BME280;19843;51.040;13.782;2023-07-16T02:30:53;99956.28;;;22.11;88.51
33506;BME280;19843;51.040;13.782;2023-07-16T02:33:20;99947.16;;;22.23;88.49
33506;BME280;19843;51.040;13.782;2023-07-16T02:35:49;99957.97;;;22.32;88.08
33506;BME280;19843;51.040;13.782;2023-07-16T02:38:19;99971.47;;;21.97;90.93
33506;BME280;19843;51.040;13.782;2023-07-16T02:40:48;99951.47;;;21.78;91.20
33506;BME280;19843;51.040;13.782;2023-07-16T02:43:15;99959.75;;;22.22;88.86
33506;BME280;19843;51.040;13.782;2023-07-16T02:45:43;99975.63;;;22.20;90.21
33506;BME280;19843;51.040;13.782;2023-07-16T02:48:10;99982.47;;;21.95;91.22
33506;BME280;19843;51.040;13.782;2023-07-16T02:50:38;100014.28;;;21.56;95.16
33506;BME280;19843;51.040;13.782;2023-07-16T02:53:07;100025.44;;;21.36;96.82
33506;BME280;19843;51.040;13.782;2023-07-16T02:55:36;100035.34;;;21.55;98.01
33506;BME280;19843;51.040;13.782;2023-07-16T02:58:04;100027.00;;;21.75;96.52
33506;BME280;19843;51.040;13.782;2023-07-16T03:00:32;100041.69;;;20.94;100.00
33506;BME280;19843;51.040;13.782;2023-07-16T03:02:59;100050.72;;;20.82;100.00
33506;BME280;19843;51.040;13.782;2023-07-16T03:05:28;100072.72;;;21.12;100.00
33506;BME280;19843;51.040;13.782;2023-07-16T03:07:55;100082.06;;;21.51;100.00
33506;BME280;19843;51.040;13.782;2023-07-16T03:10:24;100090.66;;;21.47;100.00
33506;BME280;19843;51.040;13.782;2023-07-16T03:12:54;100085.59;;;21.62;100.00
33506;BME280;19843;51.040;13.782;2023-07-16T03:15:21;100067.28;;;21.66;100.00
33506;BME280;19843;51.040;13.782;2023-07-16T03:17:49;100067.31;;;21.63;100.00
33506;BME280;19843;51.040;13.782;2023-07-16T03:20:17;100066.31;;;21.80;100.00
33506;BME280;19843;51.040;13.782;2023-07-16T03:22:44;100063.19;;;21.37;100.00
33506;BME280;19843;51.040;13.782;2023-07-16T03:25:12;100086.53;;;21.52;100.00
33506;BME280;19843;51.040;13.782;2023-07-16T03:27:39;100099.03;;;21.16;100.00
33506;BME280;19843;51.040;13.782;2023-07-16T03:30:09;100102.53;;;21.35;100.00
33506;BME280;19843;51.040;13.782;2023-07-16T03:32:37;100108.50;;;21.44;100.00
33506;BME280;19843;51.040;13.782;2023-07-16T03:35:17;100111.13;;;21.24;100.00
33506;BME280;19843;51.040;13.782;2023-07-16T03:37:45;100110.03;;;21.56;100.00
33506;BME280;19843;51.040;13.782;2023-07-16T03:40:14;100103.47;;;21.59;100.00
33506;BME280;19843;51.040;13.782;2023-07-16T03:42:42;100096.88;;;20.86;100.00
33506;BME280;19843;51.040;13.782;2023-07-16T03:45:11;100093.78;;;21.15;100.00
33506;BME280;19843;51.040;13.782;2023-07-16T03:47:40;100067.94;;;20.57;100.00
33506;BME280;19843;51.040;13.782;2023-07-16T03:50:08;100057.13;;;20.38;100.00
33506;BME280;19843;51.040;13.782;2023-07-16T03:52:36;100041.31;;;20.40;100.00
33506;BME280;19843;51.040;13.782;2023-07-16T03:55:04;100044.56;;;20.39;100.00
33506;BME280;19843;51.040;13.782;2023-07-16T03:57:33;100049.13;;;20.78;100.00
33506;BME280;19843;51.040;13.782;2023-07-16T04:00:00;100042.38;;;21.06;100.00
33506;BME280;19843;51.040;13.782;2023-07-16T04:02:29;100036.41;;;20.93;100.00
33506;BME280;19843;51.040;13.782;2023-07-16T04:04:57;100023.16;;;20.83;100.00
33506;BME280;19843;51.040;13.782;2023-07-16T04:07:24;100005.78;;;20.77;100.00
33506;BME280;19843;51.040;13.782;2023-07-16T04:09:52;100005.84;;;21.11;100.00
33506;BME280;19843;51.040;13.782;2023-07-16T04:12:19;99996.47;;;21.14;100.00
33506;BME280;19843;51.040;13.782;2023-07-16T04:14:47;100000.41;;;20.90;100.00
33506;BME280;19843;51.040;13.782;2023-07-16T04:17:14;99994.28;;;20.95;100.00
33506;BME280;19843;51.040;13.782;2023-07-16T04:19:43;100004.22;;;21.10;100.00
33506;BME280;19843;51.040;13.782;2023-07-16T04:22:11;99983.09;;;21.15;100.00
33506;BME280;19843;51.040;13.782;2023-07-16T04:24:39;99995.50;;;21.32;100.00
33506;BME280;19843;51.040;13.782;2023-07-16T04:27:06;99980.13;;;21.26;100.00
33506;BME280;19843;51.040;13.782;2023-07-16T04:29:34;99983.06;;;21.18;100.00
33506;BME280;19843;51.040;13.782;2023-07-16T04:32:02;100006.44;;;21.30;100.00
33506;BME280;19843;51.040;13.782;2023-07-16T04:34:29;100010.69;;;21.14;100.00
33506;BME280;19843;51.040;13.782;2023-07-16T04:36:58;100006.78;;;20.97;100.00
33506;BME280;19843;51.040;13.782;2023-07-16T04:39:26;100005.28;;;21.27;100.00
33506;BME280;19843;51.040;13.782;2023-07-16T04:41:53;100011.50;;;21.11;100.00
33506;BME280;19843;51.040;13.782;2023-07-16T04:44:21;100003.94;;;20.97;100.00
33506;BME280;19843;51.040;13.782;2023-07-16T04:46:48;99993.28;;;20.71;100.00
33506;BME280;19843;51.040;13.782;2023-07-16T04:49:16;100004.03;;;20.90;100.00
33506;BME280;19843;51.040;13.782;2023-07-16T04:51:43;99998.28;;;20.97;100.00
33506;BME280;19843;51.040;13.782;2023-07-16T04:54:12;100017.06;;;21.22;100.00
33506;BME280;19843;51.040;13.782;2023-07-16T04:56:40;100023.50;;;21.26;100.00
33506;BME280;19843;51.040;13.782;2023-07-16T04:59:07;100026.13;;;21.47;100.00
33506;BME280;19843;51.040;13.782;2023-07-16T05:01:35;100022.44;;;21.51;100.00
33506;BME280;19843;51.040;13.782;2023-07-16T05:04:03;100020.75;;;21.57;100.00
33506;BME280;19843;51.040;13.782;2023-07-16T05:06:30;100010.56;;;21.59;100.00
33506;BME280;19843;51.040;13.782;2023-07-16T05:08:58;100007.44;;;21.50;100.00
33506;BME280;19843;51.040;13.782;2023-07-16T05:11:27;99993.66;;;21.48;100.00
33506;BME280;19843;51.040;13.782;2023-07-16T05:13:54;99966.81;;;21.22;100.00
33506;BME280;19843;51.040;13.782;2023-07-16T05:16:23;99952.47;;;20.99;100.00
33506;BME280;19843;51.040;13.782;2023-07-16T05:18:50;99940.66;;;21.04;100.00
33506;BME280;19843;51.040;13.782;2023-07-16T05:21:18;99935.81;;;21.01;100.00
33506;BME280;19843;51.040;13.782;2023-07-16T05:23:45;99933.56;;;20.89;100.00
33506;BME280;19843;51.040;13.782;2023-07-16T05:26:13;99932.38;;;20.83;100.00
33506;BME280;19843;51.040;13.782;2023-07-16T05:28:42;99952.06;;;20.97;100.00
33506;BME280;19843;51.040;13.782;2023-07-16T05:31:10;99957.28;;;21.02;100.00
33506;BME280;19843;51.040;13.782;2023-07-16T05:33:37;99984.06;;;21.01;100.00
33506;BME280;19843;51.040;13.782;2023-07-16T05:36:05;100012.72;;;21.14;100.00
33506;BME280;19843;51.040;13.782;2023-07-16T05:38:32;99998.69;;;21.37;100.00
33506;BME280;19843;51.040;13.782;2023-07-16T05:41:01;100011.47;;;20.77;100.00
33506;BME280;19843;51.040;13.782;2023-07-16T05:43:29;100009.56;;;21.05;100.00
33506;BME280;19843;51.040;13.782;2023-07-16T05:45:58;100009.53;;;21.46;100.00
33506;BME280;19843;51.040;13.782;2023-07-16T05:48:25;100021.56;;;21.57;100.00
33506;BME280;19843;51.040;13.782;2023-07-16T05:50:53;100025.25;;;21.16;100.00
33506;BME280;19843;51.040;13.782;2023-07-16T05:53:20;100025.13;;;21.65;100.00
33506;BME280;19843;51.040;13.782;2023-07-16T05:55:48;100035.63;;;21.68;100.00
33506;BME280;19843;51.040;13.782;2023-07-16T05:58:17;100057.28;;;21.55;100.00
33506;BME280;19843;51.040;13.782;2023-07-16T06:00:45;100067.22;;;22.04;100.00
33506;BME280;19843;51.040;13.782;2023-07-16T06:03:14;100056.75;;;22.28;100.00
33506;BME280;19843;51.040;13.782;2023-07-16T06:05:43;100072.59;;;22.26;100.00
33506;BME280;19843;51.040;13.782;2023-07-16T06:08:11;100066.56;;;22.23;99.65
33506;BME280;19843;51.040;13.782;2023-07-16T06:10:38;100084.22;;;22.08;100.00
33506;BME280;19843;51.040;13.782;2023-07-16T06:13:06;100099.28;;;22.62;95.63
33506;BME280;19843;51.040;13.782;2023-07-16T06:15:34;100087.50;;;23.54;92.92
33506;BME280;19843;51.040;13.782;2023-07-16T06:18:01;100101.81;;;23.74;91.50
33506;BME280;19843;51.040;13.782;2023-07-16T06:20:30;100099.94;;;24.04;91.15
33506;BME280;19843;51.040;13.782;2023-07-16T06:22:58;100114.78;;;23.32;89.93
33506;BME280;19843;51.040;13.782;2023-07-16T06:25:26;100104.13;;;23.99;86.08
33506;BME280;19843;51.040;13.782;2023-07-16T06:27:53;100112.16;;;23.84;90.17
33506;BME280;19843;51.040;13.782;2023-07-16T06:30:21;100120.69;;;24.24;91.07
33506;BME280;19843;51.040;13.782;2023-07-16T06:32:48;100119.91;;;24.60;88.60
33506;BME280;19843;51.040;13.782;2023-07-16T06:35:16;100116.41;;;24.68;85.80
33506;BME280;19843;51.040;13.782;2023-07-16T06:37:45;100124.75;;;24.79;85.87
33506;BME280;19843;51.040;13.782;2023-07-16T06:40:14;100127.22;;;23.65;93.00
33506;BME280;19843;51.040;13.782;2023-07-16T06:42:41;100132.19;;;23.81;84.75
33506;BME280;19843;51.040;13.782;2023-07-16T06:45:09;100120.91;;;25.02;83.75
33506;BME280;19843;51.040;13.782;2023-07-16T06:47:36;100122.22;;;24.81;78.88
33506;BME280;19843;51.040;13.782;2023-07-16T06:50:05;100123.84;;;24.66;81.72
33506;BME280;19843;51.040;13.782;2023-07-16T06:52:33;100124.63;;;24.83;83.48
33506;BME280;19843;51.040;13.782;2023-07-16T06:55:02;100122.97;;;23.49;85.20
33506;BME280;19843;51.040;13.782;2023-07-16T06:57:30;100117.28;;;24.13;88.30
33506;BME280;19843;51.040;13.782;2023-07-16T06:59:57;100129.34;;;24.00;82.53
33506;BME280;19843;51.040;13.782;2023-07-16T07:02:25;100124.00;;;23.83;86.82
33506;BME280;19843;51.040;13.782;2023-07-16T07:04:53;100132.75;;;23.72;87.20
33506;BME280;19843;51.040;13.782;2023-07-16T07:07:21;100125.34;;;24.70;83.22
33506;BME280;19843;51.040;13.782;2023-07-16T07:09:49;100129.38;;;25.06;78.57
33506;BME280;19843;51.040;13.782;2023-07-16T07:12:18;100126.00;;;25.11;79.70
33506;BME280;19843;51.040;13.782;2023-07-16T07:14:46;100113.94;;;24.34;80.09
33506;BME280;19843;51.040;13.782;2023-07-16T07:17:14;100125.47;;;24.83;75.27
33506;BME280;19843;51.040;13.782;2023-07-16T07:19:43;100130.16;;;24.57;74.93
33506;BME280;19843;51.040;13.782;2023-07-16T07:22:10;100120.19;;;24.98;73.83
33506;BME280;19843;51.040;13.782;2023-07-16T07:24:38;100128.31;;;25.16;75.09
33506;BME280;19843;51.040;13.782;2023-07-16T07:27:06;100125.72;;;25.83;70.03
33506;BME280;19843;51.040;13.782;2023-07-16T07:29:35;100135.88;;;24.90;69.85
33506;BME280;19843;51.040;13.782;2023-07-16T07:32:02;100131.41;;;25.05;70.69
33506;BME280;19843;51.040;13.782;2023-07-16T07:34:30;100121.00;;;25.31;67.73
33506;BME280;19843;51.040;13.782;2023-07-16T07:36:57;100121.69;;;24.70;66.63
33506;BME280;19843;51.040;13.782;2023-07-16T07:39:25;100137.97;;;24.37;68.11
33506;BME280;19843;51.040;13.782;2023-07-16T07:41:52;100147.66;;;24.92;67.62
33506;BME280;19843;51.040;13.782;2023-07-16T07:44:20;100150.03;;;25.13;67.19
33506;BME280;19843;51.040;13.782;2023-07-16T07:46:49;100146.03;;;25.56;65.46
33506;BME280;19843;51.040;13.782;2023-07-16T07:49:16;100153.28;;;24.95;64.70
33506;BME280;19843;51.040;13.782;2023-07-16T07:51:44;100154.72;;;25.03;60.19
33506;BME280;19843;51.040;13.782;2023-07-16T07:54:13;100165.44;;;24.83;59.04
33506;BME280;19843;51.040;13.782;2023-07-16T07:56:41;100161.50;;;25.42;58.38
33506;BME280;19843;51.040;13.782;2023-07-16T07:59:09;100179.44;;;25.43;56.34
33506;BME280;19843;51.040;13.782;2023-07-16T08:01:36;100179.72;;;25.32;56.40
33506;BME280;19843;51.040;13.782;2023-07-16T08:04:05;100171.53;;;25.18;59.02
33506;BME280;19843;51.040;13.782;2023-07-16T08:06:33;100172.16;;;24.73;57.88
33506;BME280;19843;51.040;13.782;2023-07-16T08:09:01;100173.78;;;24.74;59.49
33506;BME280;19843;51.040;13.782;2023-07-16T08:11:28;100174.38;;;25.18;61.56
33506;BME280;19843;51.040;13.782;2023-07-16T08:13:56;100178.97;;;25.77;59.55
33506;BME280;19843;51.040;13.782;2023-07-16T08:16:24;100169.44;;;25.51;59.62
33506;BME280;19843;51.040;13.782;2023-07-16T08:18:51;100174.16;;;26.03;57.54
33506;BME280;19843;51.040;13.782;2023-07-16T08:21:20;100171.06;;;25.36;59.07
33506;BME280;19843;51.040;13.782;2023-07-16T08:23:50;100172.63;;;26.27;57.68
33506;BME280;19843;51.040;13.782;2023-07-16T08:26:18;100188.84;;;25.27;58.30
33506;BME280;19843;51.040;13.782;2023-07-16T08:28:45;100189.31;;;26.16;56.60
33506;BME280;19843;51.040;13.782;2023-07-16T08:31:13;100193.09;;;25.51;57.95
33506;BME280;19843;51.040;13.782;2023-07-16T08:33:41;100199.91;;;25.41;56.71
33506;BME280;19843;51.040;13.782;2023-07-16T08:36:09;100208.22;;;25.36;56.69
33506;BME280;19843;51.040;13.782;2023-07-16T08:38:38;100210.16;;;25.39;57.33
33506;BME280;19843;51.040;13.782;2023-07-16T08:41:05;100208.16;;;25.85;55.90
33506;BME280;19843;51.040;13.782;2023-07-16T08:43:33;100198.00;;;26.54;53.38
33506;BME280;19843;51.040;13.782;2023-07-16T08:46:03;100204.16;;;26.53;52.02
33506;BME280;19843;51.040;13.782;2023-07-16T08:48:31;100192.72;;;26.11;53.55
33506;BME280;19843;51.040;13.782;2023-07-16T08:51:01;100203.44;;;25.62;53.98
33506;BME280;19843;51.040;13.782;2023-07-16T08:53:29;100201.59;;;26.42;56.25
33506;BME280;19843;51.040;13.782;2023-07-16T08:55:58;100206.84;;;26.98;52.41
33506;BME280;19843;51.040;13.782;2023-07-16T08:58:29;100209.06;;;25.65;55.32
33506;BME280;19843;51.040;13.782;2023-07-16T09:00:58;100203.88;;;27.27;52.63
33506;BME280;19843;51.040;13.782;2023-07-16T09:03:29;100203.25;;;26.14;53.93
33506;BME280;19843;51.040;13.782;2023-07-16T09:05:56;100213.78;;;26.46;52.49
33506;BME280;19843;51.040;13.782;2023-07-16T09:08:26;100217.31;;;25.31;55.40
33506;BME280;19843;51.040;13.782;2023-07-16T09:10:55;100219.97;;;25.54;54.96
33506;BME280;19843;51.040;13.782;2023-07-16T09:13:25;100227.94;;;26.08;53.73
33506;BME280;19843;51.040;13.782;2023-07-16T09:15:55;100226.88;;;26.60;52.34
33506;BME280;19843;51.040;13.782;2023-07-16T09:18:24;100227.47;;;26.10;51.88
33506;BME280;19843;51.040;13.782;2023-07-16T09:20:54;100232.28;;;26.84;53.40
33506;BME280;19843;51.040;13.782;2023-07-16T09:23:24;100240.69;;;25.74;55.20
33506;BME280;19843;51.040;13.782;2023-07-16T09:25:53;100250.78;;;26.66;52.53
33506;BME280;19843;51.040;13.782;2023-07-16T09:28:21;100231.72;;;26.89;50.38
33506;BME280;19843;51.040;13.782;2023-07-16T09:30:50;100228.19;;;26.43;54.02
33506;BME280;19843;51.040;13.782;2023-07-16T09:33:20;100231.59;;;26.09;53.75
33506;BME280;19843;51.040;13.782;2023-07-16T09:35:49;100229.44;;;25.84;53.62
33506;BME280;19843;51.040;13.782;2023-07-16T09:38:17;100223.50;;;25.91;52.07
33506;BME280;19843;51.040;13.782;2023-07-16T09:40:45;100229.72;;;25.40;53.35
33506;BME280;19843;51.040;13.782;2023-07-16T09:43:13;100238.34;;;26.02;54.65
33506;BME280;19843;51.040;13.782;2023-07-16T09:45:42;100231.94;;;25.49;52.94
33506;BME280;19843;51.040;13.782;2023-07-16T09:48:12;100227.47;;;27.19;49.35
33506;BME280;19843;51.040;13.782;2023-07-16T09:50:46;100228.22;;;28.71;47.68
33506;BME280;19843;51.040;13.782;2023-07-16T09:53:19;100225.34;;;27.83;47.62
33506;BME280;19843;51.040;13.782;2023-07-16T09:55:47;100226.41;;;26.33;49.68
33506;BME280;19843;51.040;13.782;2023-07-16T09:58:18;100223.13;;;26.05;52.22
33506;BME280;19843;51.040;13.782;2023-07-16T10:00:47;100225.03;;;26.66;47.23
33506;BME280;19843;51.040;13.782;2023-07-16T10:03:17;100237.00;;;27.28;45.45
33506;BME280;19843;51.040;13.782;2023-07-16T10:05:44;100240.94;;;26.54;45.47
33506;BME280;19843;51.040;13.782;2023-07-16T10:08:16;100231.88;;;28.05;44.70
33506;BME280;19843;51.040;13.782;2023-07-16T10:10:46;100242.66;;;27.79;43.57
33506;BME280;19843;51.040;13.782;2023-07-16T10:13:15;100240.72;;;27.76;42.70
33506;BME280;19843;51.040;13.782;2023-07-16T10:15:53;100246.69;;;28.04;43.39
33506;BME280;19843;51.040;13.782;2023-07-16T10:18:30;100251.41;;;27.63;44.00
33506;BME280;19843;51.040;13.782;2023-07-16T10:21:03;100231.47;;;27.47;42.79
33506;BME280;19843;51.040;13.782;2023-07-16T10:23:39;100238.91;;;27.57;44.28
33506;BME280;19843;51.040;13.782;2023-07-16T10:26:09;100238.91;;;28.39;43.02
33506;BME280;19843;51.040;13.782;2023-07-16T10:28:39;100241.31;;;26.95;45.22
33506;BME280;19843;51.040;13.782;2023-07-16T10:31:17;100247.25;;;27.64;44.03
33506;BME280;19843;51.040;13.782;2023-07-16T10:33:56;100241.09;;;28.00;43.94
33506;BME280;19843;51.040;13.782;2023-07-16T10:36:23;100248.44;;;27.03;44.24
33506;BME280;19843;51.040;13.782;2023-07-16T10:38:51;100250.88;;;28.69;43.38
33506;BME280;19843;51.040;13.782;2023-07-16T10:41:18;100264.13;;;28.10;43.06
33506;BME280;19843;51.040;13.782;2023-07-16T10:43:48;100247.75;;;26.99;44.84
33506;BME280;19843;51.040;13.782;2023-07-16T10:46:19;100250.91;;;26.34;45.30
33506;BME280;19843;51.040;13.782;2023-07-16T10:48:49;100260.03;;;27.12;43.02
33506;BME280;19843;51.040;13.782;2023-07-16T10:51:17;100250.94;;;28.34;41.73
33506;BME280;19843;51.040;13.782;2023-07-16T10:53:45;100254.50;;;29.22;40.19
33506;BME280;19843;51.040;13.782;2023-07-16T10:56:13;100247.97;;;27.04;42.32
33506;BME280;19843;51.040;13.782;2023-07-16T10:58:42;100256.34;;;27.24;42.92
33506;BME280;19843;51.040;13.782;2023-07-16T11:01:11;100256.72;;;27.26;43.16
33506;BME280;19843;51.040;13.782;2023-07-16T11:03:39;100240.63;;;26.78;43.69
33506;BME280;19843;51.040;13.782;2023-07-16T11:06:08;100247.75;;;27.50;42.44
33506;BME280;19843;51.040;13.782;2023-07-16T11:08:38;100244.84;;;26.32;45.04
33506;BME280;19843;51.040;13.782;2023-07-16T11:11:05;100245.94;;;27.30;45.67
33506;BME280;19843;51.040;13.782;2023-07-16T11:13:34;100247.41;;;26.97;44.20
33506;BME280;19843;51.040;13.782;2023-07-16T11:16:07;100245.44;;;28.05;43.19
33506;BME280;19843;51.040;13.782;2023-07-16T11:18:35;100243.72;;;27.73;43.31
33506;BME280;19843;51.040;13.782;2023-07-16T11:21:03;100247.56;;;28.14;44.09
33506;BME280;19843;51.040;13.782;2023-07-16T11:23:34;100246.03;;;28.00;42.40
33506;BME280;19843;51.040;13.782;2023-07-16T11:26:02;100249.66;;;28.13;41.38
33506;BME280;19843;51.040;13.782;2023-07-16T11:28:37;100248.50;;;28.45;42.79
33506;BME280;19843;51.040;13.782;2023-07-16T11:31:13;100251.69;;;28.69;41.51
33506;BME280;19843;51.040;13.782;2023-07-16T11:33:42;100242.06;;;28.63;42.47
33506;BME280;19843;51.040;13.782;2023-07-16T11:36:10;100241.34;;;27.93;42.12
33506;BME280;19843;51.040;13.782;2023-07-16T11:38:40;100249.72;;;28.66;43.46
33506;BME280;19843;51.040;13.782;2023-07-16T11:41:10;100250.16;;;27.39;43.95
33506;BME280;19843;51.040;13.782;2023-07-16T11:43:40;100236.13;;;27.79;42.28
33506;BME280;19843;51.040;13.782;2023-07-16T11:46:15;100233.41;;;28.54;41.73
33506;BME280;19843;51.040;13.782;2023-07-16T11:48:44;100225.75;;;29.63;39.82
33506;BME280;19843;51.040;13.782;2023-07-16T11:51:12;100215.88;;;29.82;41.31
33506;BME280;19843;51.040;13.782;2023-07-16T11:53:41;100218.31;;;29.43;40.56
33506;BME280;19843;51.040;13.782;2023-07-16T11:56:08;100214.59;;;29.15;40.54
33506;BME280;19843;51.040;13.782;2023-07-16T11:58:36;100205.22;;;29.42;40.70
33506;BME280;19843;51.040;13.782;2023-07-16T12:01:03;100206.94;;;29.21;40.99
33506;BME280;19843;51.040;13.782;2023-07-16T12:03:31;100199.06;;;29.13;40.51
33506;BME280;19843;51.040;13.782;2023-07-16T12:05:58;100192.03;;;30.37;39.53
33506;BME280;19843;51.040;13.782;2023-07-16T12:08:26;100204.88;;;29.31;39.56
33506;BME280;19843;51.040;13.782;2023-07-16T12:10:56;100202.72;;;29.53;39.85
33506;BME280;19843;51.040;13.782;2023-07-16T12:13:27;100193.31;;;29.13;41.15
33506;BME280;19843;51.040;13.782;2023-07-16T12:15:55;100205.44;;;29.66;39.29
33506;BME280;19843;51.040;13.782;2023-07-16T12:18:22;100191.41;;;30.32;37.50
33506;BME280;19843;51.040;13.782;2023-07-16T12:20:50;100211.22;;;30.49;37.32
33506;BME280;19843;51.040;13.782;2023-07-16T12:23:17;100211.53;;;30.05;38.84
33506;BME280;19843;51.040;13.782;2023-07-16T12:25:45;100206.75;;;29.74;39.40
33506;BME280;19843;51.040;13.782;2023-07-16T12:28:13;100201.22;;;28.37;40.73
33506;BME280;19843;51.040;13.782;2023-07-16T12:30:41;100196.81;;;29.66;40.96
33506;BME280;19843;51.040;13.782;2023-07-16T12:33:09;100202.94;;;28.13;41.15
33506;BME280;19843;51.040;13.782;2023-07-16T12:35:36;100197.34;;;29.15;40.94
33506;BME280;19843;51.040;13.782;2023-07-16T12:38:04;100188.06;;;30.25;40.79
33506;BME280;19843;51.040;13.782;2023-07-16T12:40:31;100198.59;;;30.37;39.87
33506;BME280;19843;51.040;13.782;2023-07-16T12:43:05;100194.13;;;30.18;39.86
33506;BME280;19843;51.040;13.782;2023-07-16T12:45:34;100188.91;;;29.30;39.27
33506;BME280;19843;51.040;13.782;2023-07-16T12:48:02;100188.13;;;29.48;40.17
33506;BME280;19843;51.040;13.782;2023-07-16T12:50:30;100188.31;;;29.53;39.92